Mercer County Airport
KBLF : now visible

Airfield :











YOU CAN JOIN US ON...

 
LOGIN :

Register | Disclaimer

   EN    FR    IT 

 









Legend :    VFR   Marginal VFR   IFR   Intensive IFR   Very Intensive IFR
Visi :
Ceiling :
>= 8 km
>= 3000ft
5 to 8 km
1000 to 3000 ft
1500m to 5 km
500 to 1000 ft
800 to 1500m
200 to 500 ft
< 800m
< 200 ft
Symbols :   Thunderstorms  Fog  Heavy snow  Heavy precipitations  Wind > 20 kt







- Airport Elevation : 2857 ft
- IATA code : BLF


KBLF - Mercer County

CURRENT METAR :
  • 191431Z AUTO 28005KT 10SM BKN012 23/20 A3020 RMK AO2 T02330200

EXPIRED METARs :
  • 191405Z AUTO VRB05KT 10SM BKN009 OVC014 23/20 A3020 RMK AO2 T02280200
  • 191352Z AUTO VRB05KT 10SM BKN010 OVC014 23/20 A3019 RMK AO2 CIG 006V011 SLP188 T02280200
  • 191252Z AUTO 29004KT 9SM OVC005 22/21 A3019 RMK AO2 SLP187 T02170206
  • 191152Z AUTO 26005KT 6SM BR BKN004 OVC010 21/19 A3017 RMK AO2 SLP179 70008 T02060194 10211 20194 53012

TAF KBLF
Valid from the 19 at 13:00 until the 20 at 12:00 UTC


191311Z 1913/2012 26005KT P6SM OVC005
FM191400 28007KT P6SM BKN015
FM191600 28006KT P6SM SCT040
KZID FIR / North America



MET'MAP, your aeronautical weather chart ! - Copyright ORBIFLY December 2007 - Disclaimer

ORBIFLY MET'MAP TEAM :

Programming & Development : Alexandra Zaïnal
Concept & Development : Baudouin d'Aumeries
Co-Development & Prog : Marc-Olivier Méhu
Technical & hardware support : Manuel Goepfert

Contact : metmap@orbifly.com




SOURCES & CREDITS :

   NOAA       Earth
Advisory